Time;durP1;ratioP1;P1;durP2;ratioP2;P2;SDS_P1;SDS_P2;PMS_P1;PMS_P2;Temp;Humidity;BMP_temperature;BMP_pressure;BME280_temperature;BME280_humidity;BME280_pressure;Samples;Min_cycle;Max_cycle;Signal;HPM_P1;HPM_P2
2022/04/09 17:20:44;;;;;;;0.50;0.30;;;;;;;11.30;59.36;97369.55;102311;1303;600324;-26
2022/04/09 17:23:16;;;;;;;0.70;0.40;;;;;;;10.09;63.77;97384.11;104434;1284;61065;-27
2022/04/09 17:25:58;;;;;;;0.30;0.30;;;;;;;9.32;66.81;97387.38;104281;1284;61841;-27
2022/04/09 17:28:46;;;;;;;1.10;0.50;;;;;;;8.85;68.81;97406.13;104349;1284;73767;-27
2022/04/09 17:31:16;;;;;;;0.40;0.40;;;;;;;8.49;70.99;97424.91;103584;1287;76016;-27
2022/04/09 17:33:47;;;;;;;0.40;0.40;;;;;;;7.86;73.45;97438.02;104222;1274;628366;-26
2022/04/09 17:36:18;;;;;;;0.90;0.60;;;;;;;7.64;74.48;97433.02;104546;1274;61075;-26
2022/04/09 17:38:47;;;;;;;1.20;0.70;;;;;;;7.23;76.02;97438.95;104944;1274;61546;-27
2022/04/09 17:41:18;;;;;;;1.00;0.70;;;;;;;7.08;76.77;97455.14;104885;1274;71082;-26
2022/04/09 17:43:48;;;;;;;1.40;0.80;;;;;;;6.98;76.85;97464.54;105046;1274;76002;-26
2022/04/09 17:46:19;;;;;;;0.40;0.40;;;;;;;6.60;77.04;97450.21;104911;1274;74404;-26
2022/04/09 17:48:54;;;;;;;0.80;0.50;;;;;;;6.34;77.77;97471.11;104853;1274;61989;-26
2022/04/09 17:51:23;;;;;;;0.90;0.60;;;;;;;6.21;78.43;97480.86;104749;1274;62249;-26
2022/04/09 17:53:57;;;;;;;0.50;0.50;;;;;;;6.46;77.80;97477.30;104703;1274;74794;-26
2022/04/09 17:56:27;;;;;;;0.50;0.50;;;;;;;6.63;77.29;97483.08;104603;1277;76010;-26
2022/04/09 17:58:58;;;;;;;0.60;0.50;;;;;;;6.47;78.58;97487.90;104552;1274;73408;-29
2022/04/09 18:01:30;;;;;;;1.70;0.80;;;;;;;6.33;78.67;97471.86;104623;1274;61117;-26
2022/04/09 18:04:00;;;;;;;0.70;0.70;;;;;;;5.95;79.74;97470.36;104734;1274;61052;-26
2022/04/09 18:06:31;;;;;;;2.50;0.80;;;;;;;5.79;80.42;97466.56;104626;1274;74760;-26
2022/04/09 18:09:07;;;;;;;0.60;0.50;;;;;;;5.93;79.89;97464.14;104581;1274;75843;-27
2022/04/09 18:11:41;;;;;;;1.00;0.60;;;;;;;6.02;79.74;97488.94;104307;1274;74413;-28
2022/04/09 18:14:13;;;;;;;1.20;0.70;;;;;;;6.09;79.53;97499.37;104607;1274;61791;-27
2022/04/09 18:16:47;;;;;;;2.00;1.10;;;;;;;5.83;80.56;97501.20;104770;1274;60992;-27
2022/04/09 18:19:24;;;;;;;1.90;0.60;;;;;;;5.76;80.60;97498.04;104662;1277;74663;-27
2022/04/09 18:22:01;;;;;;;1.50;0.70;;;;;;;6.01;79.81;97505.00;104611;1277;76044;-27
2022/04/09 18:24:34;;;;;;;1.20;0.80;;;;;;;6.09;79.11;97502.99;104724;1277;74254;-28
2022/04/09 18:27:13;;;;;;;0.90;0.60;;;;;;;5.87;79.28;97499.48;104663;1277;61153;-28
2022/04/09 18:29:48;;;;;;;0.80;0.70;;;;;;;5.74;79.77;97509.70;104680;1277;62090;-28
2022/04/09 18:32:21;;;;;;;0.70;0.60;;;;;;;5.64;80.08;97517.81;104523;1277;74770;-28
2022/04/09 18:34:52;;;;;;;0.90;0.80;;;;;;;5.69;79.85;97529.26;104738;1277;75818;-28
2022/04/09 18:37:26;;;;;;;1.30;0.70;;;;;;;5.94;78.75;97540.18;104719;1277;74389;-29
2022/04/09 18:39:58;;;;;;;0.80;0.70;;;;;;;5.98;78.33;97557.95;104709;1277;61925;-29
2022/04/09 18:42:37;;;;;;;0.50;0.50;;;;;;;5.82;79.21;97564.36;105092;1271;61083;-28
2022/04/09 18:45:09;;;;;;;0.70;0.60;;;;;;;5.53;80.16;97567.05;105105;1274;74512;-28
2022/04/09 18:47:41;;;;;;;0.90;0.70;;;;;;;5.62;80.57;97569.05;105141;1271;76161;-29
2022/04/09 18:50:12;;;;;;;0.50;0.50;;;;;;;5.90;79.22;97556.75;105127;1271;74486;-29
2022/04/09 18:52:42;;;;;;;0.50;0.50;;;;;;;5.90;79.20;97549.52;104976;1272;61724;-29
2022/04/09 18:55:16;;;;;;;0.60;0.60;;;;;;;5.72;79.67;97547.58;104817;1271;60994;-29
2022/04/09 18:57:50;;;;;;;0.60;0.60;;;;;;;5.67;79.76;97550.06;104611;1271;74769;-29
2022/04/09 19:00:21;;;;;;;1.00;0.70;;;;;;;5.45;80.89;97544.16;104776;1272;76762;-29
2022/04/09 19:02:51;;;;;;;0.50;0.50;;;;;;;5.74;79.93;97553.98;104835;1272;74417;-28
2022/04/09 19:05:21;;;;;;;1.20;0.80;;;;;;;5.76;78.94;97543.30;104802;1271;62420;-28
2022/04/09 19:07:52;;;;;;;0.90;0.70;;;;;;;5.61;78.93;97549.77;105020;1274;61128;-29
2022/04/09 19:10:24;;;;;;;0.70;0.60;;;;;;;5.35;79.32;97553.92;104994;1274;75301;-28
2022/04/09 19:12:53;;;;;;;0.40;0.40;;;;;;;5.37;79.24;97574.80;104963;1272;75757;-29
2022/04/09 19:15:23;;;;;;;0.70;0.70;;;;;;;5.31;79.01;97575.64;105036;1274;75306;-29
2022/04/09 19:17:59;;;;;;;0.50;0.50;;;;;;;5.51;78.16;97576.03;105013;1271;61787;-29
2022/04/09 19:20:49;;;;;;;0.90;0.80;;;;;;;5.62;77.52;97584.26;104972;1274;63236;-28
2022/04/09 19:23:18;;;;;;;0.80;0.80;;;;;;;5.62;78.18;97601.98;104824;1274;73512;-28
2022/04/09 19:25:47;;;;;;;1.00;0.70;;;;;;;5.33;79.25;97593.91;104964;1274;75962;-28
2022/04/09 19:28:17;;;;;;;1.10;0.70;;;;;;;5.16;79.75;97594.24;105124;1274;74387;-29
2022/04/09 19:30:47;;;;;;;0.80;0.60;;;;;;;5.46;79.06;97615.52;105038;1274;61199;-28
2022/04/09 19:33:17;;;;;;;0.80;0.60;;;;;;;5.75;77.71;97623.97;104740;1274;61845;-29
2022/04/09 19:35:58;;;;;;;0.90;0.70;;;;;;;5.61;77.54;97627.36;104741;1274;73726;-28
2022/04/09 19:38:28;;;;;;;1.30;0.70;;;;;;;5.33;77.56;97627.23;104961;1274;76610;-28
2022/04/09 19:41:00;;;;;;;0.70;0.70;;;;;;;5.11;78.29;97626.79;104713;1273;73437;-29
2022/04/09 19:43:29;;;;;;;0.70;0.60;;;;;;;5.09;78.75;97634.73;104661;1273;62719;-28
2022/04/09 19:45:59;;;;;;;0.80;0.60;;;;;;;5.43;78.02;97636.21;104830;1274;61236;-28
2022/04/09 19:48:48;;;;;;;1.40;0.90;;;;;;;5.43;77.75;97631.97;104615;1274;74898;-28
2022/04/09 19:51:17;;;;;;;1.50;0.90;;;;;;;5.31;77.94;97626.73;104675;1274;75796;-28
2022/04/09 19:53:46;;;;;;;1.20;1.00;;;;;;;5.05;78.74;97638.82;104666;1274;72999;-28
2022/04/09 19:56:15;;;;;;;3.00;1.00;;;;;;;5.02;79.82;97644.08;104898;1274;61299;-28
2022/04/09 19:58:47;;;;;;;0.70;0.70;;;;;;;5.03;80.20;97643.48;105001;1274;62228;-28
2022/04/09 20:01:17;;;;;;;0.70;0.60;;;;;;;5.34;78.65;97648.48;105084;1274;73191;-28
2022/04/09 20:03:46;;;;;;;2.60;1.10;;;;;;;5.30;77.64;97649.51;105051;1274;75201;-28
2022/04/09 20:06:15;;;;;;;2.40;1.30;;;;;;;5.17;78.16;97655.59;105012;1274;73756;-28
2022/04/09 20:09:05;;;;;;;1.30;0.90;;;;;;;5.09;78.23;97664.66;104621;1274;62094;-28
2022/04/09 20:11:34;;;;;;;2.20;0.80;;;;;;;4.89;78.46;97670.86;104769;1274;61117;-28
2022/04/09 20:14:04;;;;;;;1.60;1.00;;;;;;;4.87;78.63;97679.98;104819;1274;74732;-29
2022/04/09 20:16:38;;;;;;;1.60;1.10;;;;;;;5.33;77.17;97709.70;105080;1274;76049;-28
2022/04/09 20:19:08;;;;;;;1.80;1.30;;;;;;;5.33;77.05;97718.46;105101;1271;74398;-28
2022/04/09 20:22:00;;;;;;;1.90;1.30;;;;;;;5.09;77.70;97719.69;104706;1274;61134;-29
2022/04/09 20:24:31;;;;;;;1.80;1.20;;;;;;;4.94;78.62;97723.14;105084;1273;62288;-28
2022/04/09 20:27:00;;;;;;;2.00;1.40;;;;;;;4.82;78.93;97719.20;104812;1274;74803;-29
2022/04/09 20:29:30;;;;;;;1.40;1.20;;;;;;;4.84;78.58;97716.30;104671;1274;76014;-29
2022/04/09 20:31:58;;;;;;;3.10;1.40;;;;;;;5.14;77.13;97709.16;104927;1274;74425;-28
2022/04/09 20:34:29;;;;;;;2.00;1.40;;;;;;;5.08;77.00;97706.17;105114;1274;61966;-28
2022/04/09 20:36:59;;;;;;;2.10;1.50;;;;;;;5.09;77.04;97711.98;105033;1274;61154;-28
2022/04/09 20:39:28;;;;;;;1.30;1.20;;;;;;;4.86;78.12;97710.55;104710;1274;73844;-29
2022/04/09 20:41:57;;;;;;;1.60;1.10;;;;;;;4.80;78.73;97708.36;104971;1274;76024;-28
2022/04/09 20:44:26;;;;;;;1.80;1.30;;;;;;;4.98;78.32;97707.68;104832;1273;74462;-28
2022/04/09 20:46:56;;;;;;;2.10;1.60;;;;;;;5.29;77.04;97705.69;104878;1274;62208;-28
2022/04/09 20:49:25;;;;;;;2.30;1.50;;;;;;;5.13;77.25;97704.23;105088;1274;61146;-28
2022/04/09 20:51:55;;;;;;;2.00;0.90;;;;;;;5.03;77.82;97705.92;104855;1274;73789;-29
2022/04/09 20:54:26;;;;;;;1.70;1.50;;;;;;;4.83;78.93;97706.47;104869;1272;76030;-28
2022/04/09 20:56:55;;;;;;;2.80;1.60;;;;;;;4.66;79.55;97711.20;104811;1274;74246;-28
2022/04/09 20:59:24;;;;;;;2.90;1.20;;;;;;;4.92;78.57;97714.48;104824;1274;61837;-28
2022/04/09 21:01:53;;;;;;;1.50;1.30;;;;;;;5.18;77.34;97728.65;104844;1274;62024;-28
2022/04/09 21:04:22;;;;;;;2.60;1.50;;;;;;;5.20;77.23;97741.33;105151;1274;74539;-29
2022/04/09 21:06:52;;;;;;;3.10;1.40;;;;;;;5.16;77.45;97743.17;105009;1274;75860;-28
2022/04/09 21:09:42;;;;;;;3.10;1.70;;;;;;;4.94;78.30;97745.11;104703;1274;74156;-28
2022/04/09 21:12:14;;;;;;;2.10;1.40;;;;;;;4.76;79.06;97744.65;104843;1274;61614;-28
2022/04/09 21:14:44;;;;;;;1.30;1.00;;;;;;;4.94;78.74;97747.02;105095;1274;61144;-28
2022/04/09 21:17:13;;;;;;;2.80;1.60;;;;;;;5.25;77.75;97750.10;105017;1274;72814;-28
2022/04/09 21:19:42;;;;;;;2.30;1.40;;;;;;;5.10;78.03;97759.14;105004;1274;76136;-28
2022/04/09 21:22:12;;;;;;;1.80;1.60;;;;;;;5.06;78.38;97760.91;105036;1274;74404;-28
2022/04/09 21:24:41;;;;;;;2.10;1.70;;;;;;;4.83;79.47;97763.73;105146;1274;62063;-28
2022/04/09 21:27:10;;;;;;;2.60;1.20;;;;;;;4.68;80.23;97768.80;105050;1274;61130;-28
2022/04/09 21:29:58;;;;;;;2.20;1.40;;;;;;;5.05;79.49;97782.27;104771;1274;74852;-27
2022/04/09 21:32:28;;;;;;;3.20;1.70;;;;;;;5.26;78.42;97789.79;104973;1274;75745;-25
2022/04/09 21:35:02;;;;;;;4.40;1.60;;;;;;;5.21;78.34;97793.60;105086;1274;74527;-28
2022/04/09 21:37:31;;;;;;;3.40;1.80;;;;;;;5.05;78.60;97793.10;104767;1274;62083;-26
2022/04/09 21:40:00;;;;;;;2.80;1.40;;;;;;;4.78;79.72;97801.75;104951;1274;62049;-26
2022/04/09 21:42:29;;;;;;;2.00;1.50;;;;;;;4.77;80.32;97808.00;104861;1274;75323;-26
2022/04/09 21:44:59;;;;;;;2.30;1.50;;;;;;;4.92;79.75;97809.91;104883;1274;76797;-26
2022/04/09 21:47:33;;;;;;;2.00;1.60;;;;;;;5.28;78.09;97814.72;104868;1274;74385;-26
2022/04/09 21:50:03;;;;;;;;;;;;;;;5.30;77.50;97819.36;104797;1274;62157;-26
2022/04/09 21:52:33;;;;;;;2.90;2.00;;;;;;;5.29;77.56;97825.65;104705;1274;61740;-26
2022/04/09 21:55:03;;;;;;;2.40;1.90;;;;;;;5.11;77.76;97828.77;105118;1272;74604;-26
2022/04/09 21:57:32;;;;;;;2.80;1.80;;;;;;;4.97;78.72;97835.36;105066;1274;76379;-26
2022/04/09 22:00:03;;;;;;;3.10;1.90;;;;;;;4.79;79.55;97839.34;105105;1274;74428;-26
2022/04/09 22:02:35;;;;;;;2.50;2.00;;;;;;;5.08;78.49;97841.39;104831;1274;61164;-26
2022/04/09 22:05:05;;;;;;;3.10;1.80;;;;;;;5.52;76.79;97847.08;105092;1274;61791;-26
2022/04/09 22:07:35;;;;;;;3.20;1.80;;;;;;;5.31;76.70;97843.35;105144;1271;74041;-26
2022/04/09 22:10:05;;;;;;;2.70;1.90;;;;;;;5.13;77.64;97851.34;104826;1272;76073;-26
2022/04/09 22:12:35;;;;;;;2.70;1.90;;;;;;;5.09;77.69;97855.28;104622;1274;74409;-26
2022/04/09 22:15:25;;;;;;;2.90;1.90;;;;;;;4.97;78.05;97851.21;105064;1271;61150;-26
2022/04/09 22:17:58;;;;;;;4.00;1.90;;;;;;;4.70;79.12;97852.92;104844;1271;61151;-26
2022/04/09 22:20:29;;;;;;;2.50;2.10;;;;;;;5.18;77.22;97858.69;105110;1274;75512;-26
2022/04/09 22:23:00;;;;;;;2.60;1.90;;;;;;;5.40;75.91;97864.55;105140;1271;75861;-26
2022/04/09 22:25:49;;;;;;;5.10;1.70;;;;;;;5.38;75.93;97861.59;105099;1271;73354;-26
2022/04/09 22:28:19;;;;;;;2.00;1.50;;;;;;;5.20;76.78;97860.05;105127;1271;60950;-26
2022/04/09 22:30:48;;;;;;;2.90;2.50;;;;;;;4.94;77.72;97857.59;105045;1271;61089;-26
2022/04/09 22:33:17;;;;;;;3.40;2.30;;;;;;;4.80;78.13;97853.71;105139;1271;74323;-26
2022/04/09 22:35:46;;;;;;;3.90;1.90;;;;;;;4.79;78.21;97852.95;105069;1271;75778;-26
2022/04/09 22:38:15;;;;;;;2.60;1.70;;;;;;;5.17;76.89;97849.98;104820;1274;74603;-26
2022/04/09 22:40:46;;;;;;;3.30;2.10;;;;;;;5.23;76.43;97852.83;104919;1274;61165;-26
2022/04/09 22:43:16;;;;;;;4.30;2.00;;;;;;;5.10;76.93;97850.70;105047;1271;62241;-26
2022/04/09 22:45:46;;;;;;;2.90;2.30;;;;;;;4.94;77.58;97853.33;104834;1271;75460;-26
2022/04/09 22:48:17;;;;;;;3.30;2.90;;;;;;;4.91;77.87;97852.86;104949;1271;76755;-26
2022/04/09 22:50:46;;;;;;;1.50;1.40;;;;;;;4.77;78.61;97858.08;105110;1271;74397;-26
2022/04/09 22:53:16;;;;;;;4.20;1.90;;;;;;;5.01;77.69;97858.30;104927;1271;61124;-26
2022/04/09 22:55:50;;;;;;;2.40;2.10;;;;;;;5.42;76.42;97873.20;104845;1271;61085;-26
2022/04/09 22:58:21;;;;;;;3.50;2.10;;;;;;;5.28;76.80;97879.11;104906;1271;76319;-26
2022/04/09 23:00:50;;;;;;;3.80;2.40;;;;;;;5.07;77.77;97883.83;105101;1271;75416;-26
2022/04/09 23:03:20;;;;;;;3.70;2.60;;;;;;;4.98;78.39;97890.13;105123;1271;74261;-27
2022/04/09 23:05:48;;;;;;;4.70;2.90;;;;;;;4.91;78.53;97892.41;104931;1271;61141;-26
2022/04/09 23:08:21;;;;;;;6.50;2.70;;;;;;;4.91;78.89;97898.75;105067;1271;61009;-26
2022/04/09 23:10:50;;;;;;;8.00;2.80;;;;;;;5.38;77.14;97900.82;104986;1271;75106;-26
2022/04/09 23:13:39;;;;;;;4.10;2.70;;;;;;;5.52;76.53;97907.18;105061;1271;75879;-26
2022/04/09 23:16:08;;;;;;;2.80;2.20;;;;;;;5.41;76.56;97907.14;105005;1271;74181;-26
2022/04/09 23:18:56;;;;;;;3.80;2.40;;;;;;;5.12;77.50;97908.70;104721;1274;62926;-27
2022/04/09 23:21:26;;;;;;;4.10;2.30;;;;;;;5.07;77.78;97915.13;104796;1274;61143;-26
2022/04/09 23:24:14;;;;;;;4.30;2.50;;;;;;;4.93;78.26;97924.77;105063;1271;75283;-27
2022/04/09 23:26:43;;;;;;;3.60;2.50;;;;;;;5.10;77.92;97928.47;105067;1271;76082;-26
2022/04/09 23:29:12;;;;;;;3.70;2.40;;;;;;;5.54;76.21;97929.72;105091;1271;74371;-26
2022/04/09 23:31:58;;;;;;;4.40;3.00;;;;;;;5.61;75.44;97927.96;104891;1271;61081;-26
2022/04/09 23:34:27;;;;;;;6.10;3.00;;;;;;;5.51;75.84;97924.95;104992;1272;61220;-27
2022/04/09 23:36:56;;;;;;;6.30;3.70;;;;;;;5.20;76.92;97916.15;105031;1274;75500;-26
2022/04/09 23:39:35;;;;;;;5.00;3.10;;;;;;;5.03;77.59;97913.33;105100;1271;75872;-26
2022/04/09 23:42:04;;;;;;;4.20;3.00;;;;;;;4.86;78.24;97912.70;105082;1271;74471;-26
2022/04/09 23:44:43;;;;;;;7.50;3.30;;;;;;;5.18;77.23;97908.62;104832;1271;61156;-26
2022/04/09 23:47:12;;;;;;;4.80;2.70;;;;;;;5.47;76.23;97911.52;104942;1270;61937;-27
2022/04/09 23:49:40;;;;;;;6.20;3.50;;;;;;;5.38;76.28;97909.10;104923;1271;75307;-26
2022/04/09 23:52:10;;;;;;;10.30;3.90;;;;;;;5.18;76.93;97904.09;104927;1271;75708;-27
2022/04/09 23:54:39;;;;;;;5.30;3.30;;;;;;;4.99;77.76;97906.95;104960;1271;74416;-26
2022/04/09 23:57:08;;;;;;;7.50;5.20;;;;;;;4.92;77.96;97906.96;104998;1271;61131;-26
2022/04/09 23:59:38;;;;;;;6.20;4.00;;;;;;;4.78;78.79;97906.98;105132;1271;61051;-27
